Pittsburg, Iowa
Current Conditions -  °F | °C
As of 10:15 PM on Wednesday 26 Nov 2014 (Local Time) from KFFL Reporting Station
Haze Haze  
Wind Chill: 19°   Ceiling: 1000
Heat Index: 27°   Visibility: 2.5mi
Dew Point: 25°   Wind: 7mph
Humidity: 93%   Direction: 320°NW
Pressure: 30.28"   Gusts: NA
Location:  40.7687°N, 92.0788°W
Report Text: KFFL 270415Z AUTO 32006KT 2 1/2SM BR OVC010 M03/M04 A3028 RMK AO2
Loading
Personal Weather Stations






























Interactive Weather Map New forecast layout! Learn more

10-Day Weather Forecast

Advertisements
Track Severe Weather on mobile